createdAt,value
2023-05-19T00:03:40.782Z,98580.22
2023-05-19T00:09:03.261Z,98584.00
2023-05-19T00:14:24.057Z,98577.44
2023-05-19T00:19:45.166Z,98570.50
2023-05-19T00:25:06.398Z,98573.13
2023-05-19T00:30:27.009Z,98570.63
2023-05-19T00:35:47.503Z,98564.25
2023-05-19T00:41:08.196Z,98561.13
2023-05-19T00:46:30.728Z,98558.34
2023-05-19T00:51:51.351Z,98557.59
2023-05-19T00:57:13.439Z,98550.25
2023-05-19T01:02:34.727Z,98552.69
2023-05-19T01:07:56.532Z,98557.06
2023-05-19T01:13:17.237Z,98548.63
2023-05-19T01:18:47.768Z,98542.97
2023-05-19T01:24:23.580Z,98546.94
2023-05-19T01:30:17.897Z,98548.94
2023-05-19T01:35:39.159Z,98548.44
2023-05-19T01:41:01.412Z,98546.81
2023-05-19T01:46:22.383Z,98547.25
2023-05-19T01:51:43.052Z,98549.13
2023-05-19T01:57:29.201Z,98550.63
2023-05-19T02:03:19.041Z,98544.44
2023-05-19T02:08:59.658Z,98551.75
2023-05-19T02:14:34.043Z,98543.63
2023-05-19T02:19:54.811Z,98540.28
2023-05-19T02:25:15.367Z,98540.84
2023-05-19T02:30:35.890Z,98532.91
2023-05-19T02:35:57.441Z,98524.34
2023-05-19T02:41:18.263Z,98516.06
2023-05-19T02:46:38.831Z,98519.06
2023-05-19T02:51:59.485Z,98509.38
2023-05-19T02:57:20.008Z,98510.84
2023-05-19T03:02:41.426Z,98509.81
2023-05-19T03:08:03.026Z,98514.41
2023-05-19T03:13:24.041Z,98516.34
2023-05-19T03:18:45.983Z,98520.09
2023-05-19T03:24:07.138Z,98512.38
2023-05-19T03:29:28.227Z,98510.72
2023-05-19T03:34:48.800Z,98514.28
2023-05-19T03:40:10.615Z,98513.94
2023-05-19T03:45:34.090Z,98518.38
2023-05-19T03:51:05.081Z,98510.56
2023-05-19T03:56:27.773Z,98514.97
2023-05-19T04:01:48.772Z,98510.03
2023-05-19T04:07:09.657Z,98511.38
2023-05-19T04:12:30.303Z,98501.50
2023-05-19T04:17:50.891Z,98501.75
2023-05-19T04:23:12.477Z,98511.78
2023-05-19T04:28:36.291Z,98517.84
2023-05-19T04:33:57.468Z,98513.97
2023-05-19T04:39:18.329Z,98522.75
2023-05-19T04:44:40.578Z,98517.72
2023-05-19T04:50:01.799Z,98527.94
2023-05-19T04:55:23.050Z,98529.34
2023-05-19T05:00:44.116Z,98522.16
2023-05-19T05:06:06.566Z,98519.38
2023-05-19T05:11:27.816Z,98525.53
2023-05-19T05:16:50.053Z,98532.75
2023-05-19T05:22:16.068Z,98508.69
2023-05-19T05:27:36.777Z,98508.91
2023-05-19T05:32:59.621Z,98501.22
2023-05-19T05:38:27.380Z,98513.69
2023-05-19T05:43:48.462Z,98508.34
2023-05-19T05:49:09.199Z,98506.22
2023-05-19T05:54:29.949Z,98510.50
2023-05-19T05:59:51.415Z,98510.97
2023-05-19T06:05:12.758Z,98505.47
2023-05-19T06:10:36.853Z,98508.19
2023-05-19T06:16:02.206Z,98508.44
2023-05-19T06:21:32.032Z,98509.28
2023-05-19T06:26:52.889Z,98511.97
2023-05-19T06:32:14.110Z,98510.09
2023-05-19T06:37:35.284Z,98513.16
2023-05-19T06:42:57.390Z,98515.59
2023-05-19T06:48:27.970Z,98520.66
2023-05-19T06:53:48.983Z,98520.94
2023-05-19T06:59:09.637Z,98520.09
2023-05-19T07:04:31.731Z,98523.09
2023-05-19T07:09:52.474Z,98531.31
2023-05-19T07:15:12.960Z,98531.13
2023-05-19T07:20:34.370Z,98531.25
2023-05-19T07:25:58.537Z,98520.19
2023-05-19T07:31:19.458Z,98529.28
2023-05-19T07:36:40.159Z,98536.72
2023-05-19T07:42:00.846Z,98530.41
2023-05-19T07:47:21.719Z,98525.78
2023-05-19T07:52:42.311Z,98523.56
2023-05-19T07:58:02.795Z,98515.50
2023-05-19T08:03:23.802Z,98515.94
2023-05-19T08:08:44.493Z,98514.41
2023-05-19T08:14:05.256Z,98514.81
2023-05-19T08:19:26.935Z,98513.16
2023-05-19T08:24:49.743Z,98501.91
2023-05-19T08:30:10.681Z,98501.69
2023-05-19T08:35:31.700Z,98499.22
2023-05-19T08:40:52.296Z,98501.47
2023-05-19T08:46:13.919Z,98500.53
2023-05-19T08:51:41.568Z,98485.56
2023-05-19T08:57:02.621Z,98488.00
2023-05-19T09:02:23.787Z,98493.81
2023-05-19T09:07:45.029Z,98487.91
2023-05-19T09:13:06.447Z,98474.94
2023-05-19T09:18:27.258Z,98468.69
2023-05-19T09:23:48.787Z,98463.81
2023-05-19T09:29:16.451Z,98461.09
2023-05-19T09:34:41.692Z,98463.47
2023-05-19T09:40:02.561Z,98467.16
2023-05-19T09:45:23.214Z,98466.00
2023-05-19T09:50:45.652Z,98447.91
2023-05-19T09:56:06.408Z,98454.75
2023-05-19T10:01:28.208Z,98453.06
2023-05-19T10:06:53.619Z,98456.59
2023-05-19T10:12:14.594Z,98454.00
2023-05-19T10:17:36.171Z,98442.81
2023-05-19T10:22:57.356Z,98435.81
2023-05-19T10:28:20.582Z,98439.97
2023-05-19T10:33:54.473Z,98435.75
2023-05-19T10:39:21.733Z,98435.88
2023-05-19T10:44:48.798Z,98427.44
2023-05-19T10:50:10.176Z,98425.00
2023-05-19T10:55:53.600Z,98430.19
2023-05-19T11:01:22.196Z,98426.16
2023-05-19T11:06:43.644Z,98427.31
2023-05-19T11:12:04.940Z,98425.47
2023-05-19T11:17:25.928Z,98420.63
2023-05-19T11:23:01.251Z,98423.84
2023-05-19T11:28:26.333Z,98422.19
2023-05-19T11:33:47.200Z,98410.94
2023-05-19T11:39:08.451Z,98410.88
2023-05-19T11:44:28.912Z,98414.78
2023-05-19T11:49:52.018Z,98416.47
2023-05-19T11:55:17.031Z,98408.91
2023-05-19T12:00:41.672Z,98391.16
2023-05-19T12:06:02.491Z,98413.31
2023-05-19T12:11:23.891Z,98401.91
2023-05-19T12:16:45.013Z,98398.00
2023-05-19T12:22:06.709Z,98403.75
2023-05-19T12:27:27.600Z,98411.66
2023-05-19T12:32:49.166Z,98392.19
2023-05-19T12:38:09.867Z,98393.91
2023-05-19T12:43:30.550Z,98386.00
2023-05-19T12:48:51.723Z,98392.88
2023-05-19T12:54:12.256Z,98392.56
2023-05-19T12:59:38.826Z,98382.25
2023-05-19T13:05:00.374Z,98385.84
2023-05-19T13:10:21.261Z,98388.19
2023-05-19T13:15:48.975Z,98377.84
2023-05-19T13:21:10.266Z,98380.59
2023-05-19T13:26:31.190Z,98382.84
2023-05-19T13:31:52.094Z,98381.44
2023-05-19T13:37:13.074Z,98392.25
2023-05-19T13:42:35.114Z,98375.59
2023-05-19T13:47:55.980Z,98372.84
2023-05-19T13:53:16.875Z,98378.53
2023-05-19T13:58:37.576Z,98374.34
2023-05-19T14:03:58.574Z,98364.72
2023-05-19T14:09:20.221Z,98373.41
2023-05-19T14:14:41.002Z,98382.00
2023-05-19T14:20:01.753Z,98360.56
2023-05-19T14:25:22.615Z,98368.16
2023-05-19T14:30:43.350Z,98367.13
2023-05-19T14:36:05.401Z,98378.00
2023-05-19T14:41:26.255Z,98379.38
2023-05-19T14:46:46.855Z,98375.53
2023-05-19T14:52:07.454Z,98377.94
2023-05-19T14:57:28.088Z,98370.63
2023-05-19T15:02:49.664Z,98376.66
2023-05-19T15:08:10.842Z,98389.22
2023-05-19T15:13:31.782Z,98378.97
2023-05-19T15:18:54.556Z,98385.56
2023-05-19T15:24:15.534Z,98381.19
2023-05-19T15:29:36.584Z,98379.38
2023-05-19T15:34:57.680Z,98385.56
2023-05-19T15:40:18.687Z,98372.25
2023-05-19T15:45:39.465Z,98370.38
2023-05-19T15:51:00.632Z,98367.03
2023-05-19T15:56:21.699Z,98362.34
2023-05-19T16:01:42.385Z,98365.88
2023-05-19T16:07:02.960Z,98369.97
2023-05-19T16:12:27.453Z,98373.00
2023-05-19T16:17:48.290Z,98372.19
2023-05-19T16:23:08.774Z,98367.91
2023-05-19T16:28:29.413Z,98373.84
2023-05-19T16:33:49.956Z,98367.69
2023-05-19T16:39:10.760Z,98366.63
2023-05-19T16:44:31.753Z,98363.91
2023-05-19T16:49:52.266Z,98375.06
2023-05-19T16:55:17.280Z,98367.81
2023-05-19T17:00:38.196Z,98372.16
2023-05-19T17:05:58.757Z,98364.78
2023-05-19T17:11:19.375Z,98370.59
2023-05-19T17:16:40.090Z,98375.16
2023-05-19T17:22:00.867Z,98367.75
2023-05-19T17:27:21.482Z,98373.19
2023-05-19T17:32:42.215Z,98375.56
2023-05-19T17:38:02.519Z,98378.84
2023-05-19T17:43:23.461Z,98379.00
2023-05-19T17:48:44.177Z,98376.81
2023-05-19T17:54:05.467Z,98376.44
2023-05-19T17:59:26.287Z,98372.19
2023-05-19T18:04:48.514Z,98369.84
2023-05-19T18:10:09.896Z,98381.34
2023-05-19T18:15:30.979Z,98375.72
2023-05-19T18:20:51.996Z,98369.13
2023-05-19T18:26:16.198Z,98374.25
2023-05-19T18:31:37.143Z,98390.50
2023-05-19T18:36:57.666Z,98382.56
2023-05-19T18:42:25.558Z,98396.72
2023-05-19T18:47:46.444Z,98399.41
2023-05-19T18:53:07.235Z,98399.03
2023-05-19T18:58:27.741Z,98402.69
2023-05-19T19:03:49.415Z,98405.25
2023-05-19T19:09:10.299Z,98413.88
2023-05-19T19:14:31.059Z,98411.50
2023-05-19T19:19:51.694Z,98409.91
2023-05-19T19:25:12.263Z,98418.31
2023-05-19T19:30:33.164Z,98419.72
2023-05-19T19:35:54.227Z,98432.34
2023-05-19T19:41:14.720Z,98426.81
2023-05-19T19:46:35.419Z,98434.09
2023-05-19T19:51:55.900Z,98431.47
2023-05-19T19:57:19.336Z,98432.41
2023-05-19T20:02:55.343Z,98444.81
2023-05-19T20:08:21.877Z,98441.34
2023-05-19T20:13:42.950Z,98447.41
2023-05-19T20:19:03.476Z,98440.25
2023-05-19T20:24:24.069Z,98433.22
2023-05-19T20:29:45.500Z,98428.91
2023-05-19T20:35:06.882Z,98430.84
2023-05-19T20:40:28.082Z,98444.59
2023-05-19T20:45:48.959Z,98442.69
2023-05-19T20:51:09.802Z,98448.03
2023-05-19T20:56:30.383Z,98447.91
2023-05-19T21:01:51.277Z,98440.25
2023-05-19T21:07:12.124Z,98437.44
2023-05-19T21:12:34.250Z,98435.50
2023-05-19T21:17:55.509Z,98434.47
2023-05-19T21:23:16.034Z,98424.88
2023-05-19T21:28:36.737Z,98417.94
2023-05-19T21:33:57.444Z,98426.19
2023-05-19T21:39:18.450Z,98428.38
2023-05-19T21:44:39.313Z,98444.66
2023-05-19T21:49:59.883Z,98468.31
2023-05-19T21:55:22.025Z,98465.78
2023-05-19T22:00:43.405Z,98459.81
2023-05-19T22:06:06.396Z,98465.94
2023-05-19T22:11:27.034Z,98454.88
2023-05-19T22:16:47.774Z,98457.63
2023-05-19T22:22:14.218Z,98456.63
2023-05-19T22:27:35.373Z,98453.94
2023-05-19T22:32:56.074Z,98452.31
2023-05-19T22:38:16.659Z,98443.03
2023-05-19T22:43:37.433Z,98442.88
2023-05-19T22:48:58.021Z,98433.59
2023-05-19T22:54:18.925Z,98432.44
2023-05-19T22:59:40.004Z,98430.72
2023-05-19T23:05:00.773Z,98422.06
2023-05-19T23:10:21.308Z,98422.97
2023-05-19T23:15:41.919Z,98411.47
2023-05-19T23:21:02.443Z,98403.38
2023-05-19T23:26:23.370Z,98401.66
2023-05-19T23:31:44.250Z,98409.75
2023-05-19T23:37:05.561Z,98406.47
2023-05-19T23:42:26.322Z,98411.66
2023-05-19T23:47:47.110Z,98410.47
2023-05-19T23:53:08.280Z,98416.38
2023-05-19T23:58:28.748Z,98411.38
